createdAt,value
2019-04-03T00:00:41.771Z,6.75
2019-04-03T00:03:11.139Z,7.22
2019-04-03T00:05:40.375Z,8.88
2019-04-03T00:08:09.727Z,7.60
2019-04-03T00:10:39.046Z,7.05
2019-04-03T00:13:10.478Z,5.87
2019-04-03T00:15:39.427Z,6.97
2019-04-03T00:18:08.868Z,7.35
2019-04-03T00:20:38.159Z,6.80
2019-04-03T00:23:07.563Z,12.30
2019-04-03T00:25:36.944Z,12.43
2019-04-03T00:28:06.271Z,9.08
2019-04-03T00:30:35.654Z,10.78
2019-04-03T00:33:04.991Z,9.13
2019-04-03T00:35:35.337Z,9.13
2019-04-03T00:38:04.655Z,7.58
2019-04-03T00:40:34.019Z,10.18
2019-04-03T00:43:04.339Z,9.73
2019-04-03T00:45:33.638Z,8.55
2019-04-03T00:48:02.883Z,9.03
2019-04-03T00:50:32.187Z,8.78
2019-04-03T00:53:01.423Z,10.15
2019-04-03T00:55:30.771Z,8.08
2019-04-03T00:58:00.032Z,12.30
2019-04-03T01:00:29.439Z,13.85
2019-04-03T01:02:59.112Z,11.40
2019-04-03T01:05:29.048Z,9.75
2019-04-03T01:07:59.899Z,11.00
2019-04-03T01:10:30.201Z,12.15
2019-04-03T01:13:01.375Z,10.30
2019-04-03T01:15:31.530Z,11.00
2019-04-03T01:18:04.297Z,16.90
2019-04-03T01:20:32.455Z,11.88
2019-04-03T01:23:01.809Z,9.48
2019-04-03T01:25:31.136Z,12.18
2019-04-03T01:28:00.499Z,13.30
2019-04-03T01:30:29.865Z,12.13
2019-04-03T01:32:59.166Z,14.05
2019-04-03T01:35:28.432Z,12.55
2019-04-03T01:37:57.722Z,10.82
2019-04-03T01:40:26.975Z,13.72
2019-04-03T01:42:56.273Z,12.13
2019-04-03T01:45:26.234Z,13.50
2019-04-03T01:47:57.315Z,12.00
2019-04-03T01:50:28.632Z,10.93
2019-04-03T01:52:58.471Z,10.38
2019-04-03T01:55:27.804Z,16.57
2019-04-03T01:57:57.122Z,12.47
2019-04-03T02:00:26.376Z,14.18
2019-04-03T02:02:55.732Z,12.63
2019-04-03T02:05:25.119Z,14.07
2019-04-03T02:07:54.351Z,12.75
2019-04-03T02:10:23.702Z,11.80
2019-04-03T02:12:52.967Z,14.47
2019-04-03T02:15:22.365Z,11.78
2019-04-03T02:17:54.233Z,12.07
2019-04-03T02:20:22.634Z,13.80
2019-04-03T02:22:52.065Z,16.48
2019-04-03T02:25:21.382Z,12.60
2019-04-03T02:27:50.885Z,13.58
2019-04-03T02:30:20.552Z,15.90
2019-04-03T02:32:49.917Z,11.90
2019-04-03T02:35:19.190Z,12.65
2019-04-03T02:37:49.714Z,12.50
2019-04-03T02:40:19.468Z,18.17
2019-04-03T02:42:49.015Z,13.58
2019-04-03T02:45:18.630Z,13.05
2019-04-03T02:47:49.212Z,16.62
2019-04-03T02:50:24.539Z,12.00
2019-04-03T02:52:56.703Z,10.32
2019-04-03T02:55:24.971Z,13.65
2019-04-03T02:57:54.278Z,13.28
2019-04-03T03:00:23.793Z,14.98
2019-04-03T03:02:53.129Z,20.62
2019-04-03T03:05:22.601Z,13.22
2019-04-03T03:07:51.960Z,13.28
2019-04-03T03:10:21.418Z,12.60
2019-04-03T03:12:50.734Z,15.93
2019-04-03T03:15:20.254Z,16.42
2019-04-03T03:17:49.682Z,12.47
2019-04-03T03:20:22.202Z,17.07
2019-04-03T03:22:51.811Z,17.80
2019-04-03T03:25:22.159Z,17.02
2019-04-03T03:27:51.450Z,13.83
2019-04-03T03:30:35.754Z,14.43
2019-04-03T03:32:52.174Z,18.52
2019-04-03T03:35:29.404Z,13.53
2019-04-03T03:37:53.408Z,15.90
2019-04-03T03:40:23.739Z,13.38
2019-04-03T03:42:53.029Z,19.42
2019-04-03T03:45:22.579Z,16.42
2019-04-03T03:47:52.088Z,14.40
2019-04-03T03:50:25.680Z,17.17
2019-04-03T03:52:55.164Z,44.42
2019-04-03T03:55:25.644Z,15.28
2019-04-03T03:57:55.527Z,14.35
2019-04-03T04:00:25.029Z,17.42
2019-04-03T04:02:54.656Z,14.23
2019-04-03T04:05:23.970Z,13.80
2019-04-03T04:07:53.563Z,18.48
2019-04-03T04:10:25.476Z,13.48
2019-04-03T04:12:54.152Z,15.15
2019-04-03T04:15:23.887Z,16.10
2019-04-03T04:17:54.574Z,13.35
2019-04-03T04:20:23.899Z,16.48
2019-04-03T04:22:53.238Z,17.23
2019-04-03T04:25:22.537Z,18.62
2019-04-03T04:27:52.867Z,17.62
2019-04-03T04:30:22.127Z,13.43
2019-04-03T04:32:51.419Z,18.55
2019-04-03T04:35:22.027Z,17.60
2019-04-03T04:37:51.468Z,24.00
2019-04-03T04:40:20.720Z,16.87
2019-04-03T04:42:50.138Z,22.95
2019-04-03T04:45:19.431Z,22.67
2019-04-03T04:47:48.720Z,14.53
2019-04-03T04:50:24.283Z,13.40
2019-04-03T04:52:53.514Z,19.48
2019-04-03T04:55:22.820Z,28.98
2019-04-03T04:57:52.225Z,17.65
2019-04-03T05:00:21.584Z,22.58
2019-04-03T05:02:51.499Z,20.65
2019-04-03T05:05:20.890Z,25.97
2019-04-03T05:07:50.374Z,26.12
2019-04-03T05:10:20.639Z,22.40
2019-04-03T05:12:49.902Z,18.87
2019-04-03T05:15:21.890Z,23.22
2019-04-03T05:17:50.567Z,18.17
2019-04-03T05:20:20.530Z,24.80
2019-04-03T05:22:49.907Z,21.68
2019-04-03T05:25:19.206Z,25.80
2019-04-03T05:27:48.467Z,21.77
2019-04-03T05:30:30.291Z,21.95
2019-04-03T05:32:59.822Z,24.50
2019-04-03T05:35:29.231Z,26.77
2019-04-03T05:37:58.515Z,23.57
2019-04-03T05:40:27.927Z,26.50
2019-04-03T05:42:59.256Z,23.47
2019-04-03T05:45:28.106Z,33.38
2019-04-03T05:47:57.622Z,21.90
2019-04-03T05:50:27.229Z,73.57
2019-04-03T05:52:56.543Z,25.60
2019-04-03T05:55:25.836Z,20.08
2019-04-03T05:57:55.117Z,24.45
2019-04-03T06:00:24.466Z,19.32
2019-04-03T06:02:54.097Z,25.95
2019-04-03T06:05:24.645Z,17.98
2019-04-03T06:07:53.911Z,14.65
2019-04-03T06:10:23.267Z,17.17
2019-04-03T06:12:52.638Z,17.23
2019-04-03T06:15:22.812Z,18.50
2019-04-03T06:17:54.275Z,18.77
2019-04-03T06:20:23.243Z,23.57
2019-04-03T06:22:52.551Z,21.75
2019-04-03T06:25:21.987Z,19.77
2019-04-03T06:27:52.619Z,23.62
2019-04-03T06:30:25.017Z,22.02
2019-04-03T06:32:54.940Z,24.60
2019-04-03T06:35:24.740Z,30.37
2019-04-03T06:37:55.072Z,28.30
2019-04-03T06:40:24.363Z,31.87
2019-04-03T06:43:15.343Z,22.42
2019-04-03T06:45:45.174Z,29.30
2019-04-03T06:48:14.499Z,17.35
2019-04-03T06:50:43.791Z,17.40
2019-04-03T06:53:13.056Z,26.57
2019-04-03T06:55:42.422Z,20.45
2019-04-03T06:58:12.320Z,18.82
2019-04-03T07:00:41.761Z,16.32
2019-04-03T07:03:11.023Z,22.30
2019-04-03T07:05:41.912Z,32.48
2019-04-03T07:08:11.566Z,25.68
2019-04-03T07:10:40.883Z,16.95
2019-04-03T07:13:10.220Z,18.02
2019-04-03T07:15:39.515Z,15.90
2019-04-03T07:18:08.780Z,13.70
2019-04-03T07:20:38.071Z,18.15
2019-04-03T07:23:07.410Z,16.17
2019-04-03T07:25:36.727Z,16.27
2019-04-03T07:28:08.622Z,17.25
2019-04-03T07:30:36.922Z,15.55
2019-04-03T07:33:06.378Z,17.52
2019-04-03T07:35:36.163Z,16.05
2019-04-03T07:38:05.588Z,12.37
2019-04-03T07:40:35.471Z,13.53
2019-04-03T07:43:05.100Z,12.15
2019-04-03T07:45:34.443Z,17.52
2019-04-03T07:48:06.696Z,16.62
2019-04-03T07:50:36.951Z,15.03
2019-04-03T07:53:06.678Z,14.98
2019-04-03T07:55:36.044Z,19.77
2019-04-03T07:58:05.312Z,16.70
2019-04-03T08:00:36.286Z,12.43
2019-04-03T08:03:05.567Z,15.32
2019-04-03T08:05:34.953Z,17.48
2019-04-03T08:08:04.363Z,15.13
2019-04-03T08:10:34.295Z,18.30
2019-04-03T08:13:04.992Z,17.73
2019-04-03T08:15:35.704Z,16.45
2019-04-03T08:18:05.143Z,17.60
2019-04-03T08:20:34.567Z,19.30
2019-04-03T08:23:05.967Z,18.57
2019-04-03T08:25:35.073Z,16.02
2019-04-03T08:28:04.431Z,14.38
2019-04-03T08:30:33.695Z,14.65
2019-04-03T08:33:14.836Z,18.30
2019-04-03T08:35:35.801Z,17.40
2019-04-03T08:38:04.810Z,15.63
2019-04-03T08:40:34.450Z,17.20
2019-04-03T08:43:04.134Z,13.05
2019-04-03T08:45:33.686Z,14.10
2019-04-03T08:48:05.846Z,16.37
2019-04-03T08:50:33.903Z,18.70
2019-04-03T08:53:03.199Z,18.20
2019-04-03T08:55:32.463Z,14.58
2019-04-03T08:58:02.828Z,15.83
2019-04-03T09:00:32.753Z,20.68
2019-04-03T09:03:04.104Z,20.88
2019-04-03T09:05:34.415Z,20.23
2019-04-03T09:08:03.776Z,14.93
2019-04-03T09:10:36.494Z,18.32
2019-04-03T09:13:16.030Z,20.48
2019-04-03T09:15:35.042Z,16.35
2019-04-03T09:18:06.429Z,15.18
2019-04-03T09:20:36.016Z,20.32
2019-04-03T09:23:05.559Z,17.02
2019-04-03T09:25:34.833Z,16.23
2019-04-03T09:28:04.199Z,15.68
2019-04-03T09:30:33.661Z,18.73
2019-04-03T09:33:02.950Z,23.20
2019-04-03T09:35:33.189Z,17.77
2019-04-03T09:38:02.587Z,15.25
2019-04-03T09:40:31.890Z,17.75
2019-04-03T09:43:01.375Z,17.65
2019-04-03T09:45:30.739Z,17.10
2019-04-03T09:48:00.306Z,15.15
2019-04-03T09:50:29.675Z,15.28
2019-04-03T09:53:01.802Z,14.80
2019-04-03T09:55:33.464Z,16.97
2019-04-03T09:58:03.677Z,14.83
2019-04-03T10:00:31.944Z,14.85
2019-04-03T10:03:01.243Z,18.95
2019-04-03T10:05:30.610Z,15.60
2019-04-03T10:07:59.978Z,15.88
2019-04-03T10:10:29.266Z,16.93
2019-04-03T10:12:58.651Z,16.20
2019-04-03T10:15:29.066Z,13.83
2019-04-03T10:17:58.878Z,14.10
2019-04-03T10:20:28.207Z,16.20
2019-04-03T10:22:57.475Z,15.98
2019-04-03T10:25:26.767Z,20.40
2019-04-03T10:27:56.031Z,20.20
2019-04-03T10:30:25.491Z,13.88
2019-04-03T10:32:56.955Z,17.05
2019-04-03T10:35:25.739Z,17.15
2019-04-03T10:37:55.119Z,18.07
2019-04-03T10:40:25.086Z,18.92
2019-04-03T10:42:55.272Z,13.53
2019-04-03T10:45:24.858Z,15.95
2019-04-03T10:47:56.358Z,16.37
2019-04-03T10:50:25.262Z,14.50
2019-04-03T10:52:54.554Z,24.10
2019-04-03T10:55:23.863Z,22.13
2019-04-03T10:57:53.271Z,17.92
2019-04-03T11:00:24.640Z,18.60
2019-04-03T11:02:53.523Z,18.25
2019-04-03T11:05:22.887Z,19.57
2019-04-03T11:07:52.415Z,17.95
2019-04-03T11:10:24.154Z,16.02
2019-04-03T11:12:52.734Z,16.73
2019-04-03T11:15:22.671Z,17.02
2019-04-03T11:17:52.094Z,19.32
2019-04-03T11:20:21.662Z,17.70
2019-04-03T11:23:04.112Z,19.45
2019-04-03T11:25:22.094Z,15.23
2019-04-03T11:27:51.740Z,16.35
2019-04-03T11:30:24.221Z,12.65
2019-04-03T11:32:52.083Z,18.15
2019-04-03T11:35:22.389Z,16.20
2019-04-03T11:37:51.930Z,13.72
2019-04-03T11:40:24.099Z,12.95
2019-04-03T11:42:52.302Z,11.83
2019-04-03T11:45:23.523Z,11.78
2019-04-03T11:47:53.493Z,12.13
2019-04-03T11:50:24.371Z,11.33
2019-04-03T11:52:53.764Z,11.93
2019-04-03T11:55:23.405Z,11.45
2019-04-03T11:57:52.766Z,18.70
2019-04-03T12:00:29.805Z,10.95
2019-04-03T12:02:59.286Z,20.08
2019-04-03T12:05:28.597Z,11.08
2019-04-03T12:07:57.864Z,12.82
2019-04-03T12:10:27.136Z,5.33
2019-04-03T12:12:57.464Z,4.55
2019-04-03T12:15:26.943Z,6.33
2019-04-03T12:17:56.486Z,6.97
2019-04-03T12:20:27.199Z,5.87
2019-04-03T12:22:56.541Z,7.42
2019-04-03T12:25:25.803Z,4.50
2019-04-03T12:27:55.136Z,9.18
2019-04-03T12:30:26.386Z,11.08
2019-04-03T12:32:55.724Z,7.83
2019-04-03T12:35:25.155Z,8.15
2019-04-03T12:37:54.907Z,9.88
2019-04-03T12:40:24.258Z,5.87
2019-04-03T12:42:54.272Z,14.60
2019-04-03T12:45:26.156Z,6.22
2019-04-03T12:47:54.750Z,11.85
2019-04-03T12:50:26.859Z,6.25
2019-04-03T12:52:54.990Z,8.70
2019-04-03T12:55:25.989Z,20.75
2019-04-03T12:57:55.291Z,24.57
2019-04-03T13:00:24.732Z,5.90
2019-04-03T13:02:54.323Z,4.60
2019-04-03T13:05:23.663Z,5.87
2019-04-03T13:07:52.969Z,38.17
2019-04-03T13:10:22.526Z,10.82
2019-04-03T13:12:54.618Z,6.87
2019-04-03T13:15:22.778Z,5.00
2019-04-03T13:17:52.205Z,12.68
2019-04-03T13:20:21.479Z,7.78
2019-04-03T13:22:50.806Z,8.00
2019-04-03T13:25:21.396Z,10.32
2019-04-03T13:27:51.104Z,5.05
2019-04-03T13:30:20.936Z,4.00
2019-04-03T13:32:59.087Z,5.80
2019-04-03T13:35:21.931Z,37.35
2019-04-03T13:37:51.311Z,2.75
2019-04-03T13:40:20.591Z,7.15
2019-04-03T13:42:50.063Z,2.87
2019-04-03T13:45:19.342Z,14.40
2019-04-03T13:47:48.874Z,2.35
2019-04-03T13:50:18.443Z,2.75
2019-04-03T13:52:49.907Z,3.40
2019-04-03T13:55:18.778Z,3.35
2019-04-03T13:57:49.798Z,2.72
2019-04-03T14:00:22.733Z,2.12
2019-04-03T14:02:50.571Z,2.65
2019-04-03T14:05:19.928Z,3.40
2019-04-03T14:07:50.797Z,4.50
2019-04-03T14:10:20.245Z,4.15
2019-04-03T14:12:49.570Z,3.05
2019-04-03T14:15:20.304Z,1.62
2019-04-03T14:17:57.244Z,7.33
2019-04-03T14:20:23.677Z,1.27
2019-04-03T14:22:55.411Z,5.43
2019-04-03T14:25:31.282Z,2.50
2019-04-03T14:27:57.134Z,5.17
2019-04-03T14:30:26.850Z,2.15
2019-04-03T14:32:56.262Z,23.57
2019-04-03T14:35:54.961Z,1.62
2019-04-03T14:37:59.904Z,5.55
2019-04-03T14:40:29.654Z,1.40
2019-04-03T14:43:00.092Z,3.55
2019-04-03T14:45:29.982Z,6.95
2019-04-03T14:47:59.589Z,4.10
2019-04-03T14:50:29.261Z,2.37
2019-04-03T14:52:58.628Z,3.65
2019-04-03T14:55:28.724Z,11.08
2019-04-03T14:57:58.832Z,7.60
2019-04-03T15:00:31.026Z,3.10
2019-04-03T15:02:59.318Z,4.20
2019-04-03T15:05:28.706Z,2.83
2019-04-03T15:07:58.162Z,1.27
2019-04-03T15:10:30.747Z,4.80
2019-04-03T15:13:00.068Z,7.47
2019-04-03T15:15:29.369Z,7.95
2019-04-03T15:17:58.891Z,1.98
2019-04-03T15:20:28.489Z,2.12
2019-04-03T15:22:57.850Z,4.62
2019-04-03T15:25:27.154Z,2.60
2019-04-03T15:27:57.300Z,6.67
2019-04-03T15:30:27.482Z,4.83
2019-04-03T15:32:56.763Z,2.87
2019-04-03T15:35:26.454Z,5.12
2019-04-03T15:37:56.006Z,2.27
2019-04-03T15:40:26.858Z,3.20
2019-04-03T15:42:56.814Z,4.50
2019-04-03T15:45:26.300Z,3.30
2019-04-03T15:47:57.562Z,5.12
2019-04-03T15:50:28.004Z,3.67
2019-04-03T15:52:57.466Z,7.67
2019-04-03T15:55:27.231Z,4.55
2019-04-03T15:57:57.851Z,5.85
2019-04-03T16:00:27.542Z,2.20
2019-04-03T16:02:57.010Z,2.02
2019-04-03T16:05:29.509Z,2.35
2019-04-03T16:07:57.524Z,4.53
2019-04-03T16:10:27.109Z,1.60
2019-04-03T16:12:56.772Z,4.58
2019-04-03T16:15:26.121Z,4.03
2019-04-03T16:17:55.468Z,2.08
2019-04-03T16:20:24.694Z,2.10
2019-04-03T16:22:54.047Z,5.83
2019-04-03T16:25:23.375Z,4.60
2019-04-03T16:27:52.596Z,3.92
2019-04-03T16:30:21.894Z,2.60
2019-04-03T16:32:51.131Z,2.17
2019-04-03T16:35:20.392Z,1.50
2019-04-03T16:37:50.934Z,3.98
2019-04-03T16:40:20.628Z,2.37
2019-04-03T16:42:52.970Z,2.25
2019-04-03T16:45:22.034Z,2.52
2019-04-03T16:47:51.759Z,3.62
2019-04-03T16:50:21.103Z,3.45
2019-04-03T16:52:50.728Z,3.80
2019-04-03T16:55:20.542Z,2.08
2019-04-03T16:57:53.127Z,2.52
2019-04-03T17:00:40.984Z,3.80
2019-04-03T17:03:11.765Z,4.15
2019-04-03T17:05:41.506Z,2.37
2019-04-03T17:08:12.255Z,2.90
2019-04-03T17:10:42.315Z,2.08
2019-04-03T17:13:11.680Z,2.25
2019-04-03T17:15:40.935Z,2.00
2019-04-03T17:18:10.856Z,4.30
2019-04-03T17:20:40.902Z,4.45
2019-04-03T17:23:12.303Z,3.00
2019-04-03T17:25:48.230Z,4.08
2019-04-03T17:28:11.955Z,3.10
2019-04-03T17:30:41.413Z,2.12
2019-04-03T17:33:10.707Z,2.40
2019-04-03T17:35:41.325Z,2.62
2019-04-03T17:38:10.738Z,2.65
2019-04-03T17:40:39.987Z,2.12
2019-04-03T17:43:09.270Z,7.67
2019-04-03T17:45:38.603Z,2.12
2019-04-03T17:48:07.911Z,2.95
2019-04-03T17:50:37.177Z,5.15
2019-04-03T17:53:07.083Z,4.05
2019-04-03T17:55:36.499Z,7.35
2019-04-03T17:58:05.779Z,5.65
2019-04-03T18:00:35.207Z,4.80
2019-04-03T18:03:04.760Z,2.00
2019-04-03T18:05:34.191Z,1.92
2019-04-03T18:08:03.555Z,2.33
2019-04-03T18:10:32.811Z,3.65
2019-04-03T18:13:02.123Z,3.75
2019-04-03T18:15:32.940Z,2.75
2019-04-03T18:18:02.881Z,1.72
2019-04-03T18:20:32.698Z,5.25
2019-04-03T18:23:01.999Z,6.25
2019-04-03T18:25:31.274Z,2.33
2019-04-03T18:28:00.724Z,3.33
2019-04-03T18:30:30.047Z,5.90
2019-04-03T18:32:59.327Z,4.90
2019-04-03T18:35:28.592Z,3.77
2019-04-03T18:37:57.876Z,3.58
2019-04-03T18:40:27.130Z,2.83
2019-04-03T18:42:56.411Z,2.25
2019-04-03T18:45:25.999Z,4.12
2019-04-03T18:47:55.718Z,3.77
2019-04-03T18:50:25.050Z,3.00
2019-04-03T18:52:54.551Z,3.17
2019-04-03T18:55:23.811Z,4.33
2019-04-03T18:57:53.136Z,5.12
2019-04-03T19:00:22.418Z,3.00
2019-04-03T19:02:51.747Z,5.60
2019-04-03T19:05:21.034Z,3.17
2019-04-03T19:07:50.291Z,2.37
2019-04-03T19:10:22.918Z,3.98
2019-04-03T19:12:50.454Z,6.35
2019-04-03T19:15:19.806Z,2.47
2019-04-03T19:17:59.303Z,2.83
2019-04-03T19:20:20.939Z,2.67
2019-04-03T19:23:01.918Z,2.45
2019-04-03T19:25:21.368Z,2.42
2019-04-03T19:27:50.715Z,2.15
2019-04-03T19:30:20.068Z,3.50
2019-04-03T19:32:50.811Z,2.47
2019-04-03T19:35:21.260Z,2.33
2019-04-03T19:37:51.687Z,2.42
2019-04-03T19:40:20.971Z,4.17
2019-04-03T19:42:50.294Z,4.70
2019-04-03T19:45:21.436Z,2.30
2019-04-03T19:47:50.533Z,3.55
2019-04-03T19:50:19.936Z,2.35
2019-04-03T19:52:49.555Z,3.35
2019-04-03T19:55:19.506Z,3.75
2019-04-03T19:57:48.991Z,3.87
2019-04-03T20:00:18.346Z,4.55
2019-04-03T20:02:47.671Z,4.08
2019-04-03T20:05:19.037Z,12.03
2019-04-03T20:07:48.050Z,17.40
2019-04-03T20:10:17.343Z,10.85
2019-04-03T20:12:46.776Z,8.78
2019-04-03T20:15:17.095Z,9.75
2019-04-03T20:17:46.355Z,12.20
2019-04-03T20:20:15.635Z,6.92
2019-04-03T20:22:44.899Z,8.13
2019-04-03T20:25:15.203Z,9.48
2019-04-03T20:27:47.222Z,9.33
2019-04-03T20:30:15.566Z,6.75
2019-04-03T20:32:44.851Z,8.70
2019-04-03T20:35:18.007Z,10.32
2019-04-03T20:37:46.119Z,6.55
2019-04-03T20:40:15.370Z,7.25
2019-04-03T20:42:44.650Z,7.22
2019-04-03T20:45:13.907Z,7.50
2019-04-03T20:47:43.281Z,6.20
2019-04-03T20:50:12.529Z,6.55
2019-04-03T20:52:41.874Z,6.15
2019-04-03T20:55:11.126Z,6.58
2019-04-03T20:57:40.408Z,5.90
2019-04-03T21:00:11.867Z,5.92
2019-04-03T21:02:42.179Z,6.37
2019-04-03T21:05:11.539Z,6.42
2019-04-03T21:07:40.818Z,6.65
2019-04-03T21:10:10.071Z,5.47
2019-04-03T21:12:39.373Z,5.45
2019-04-03T21:15:09.446Z,6.28
2019-04-03T21:17:38.827Z,5.00
2019-04-03T21:20:08.078Z,4.47
2019-04-03T21:22:37.355Z,5.05
2019-04-03T21:25:06.659Z,5.25
2019-04-03T21:27:39.808Z,5.37
2019-04-03T21:30:09.280Z,5.25
2019-04-03T21:32:38.491Z,5.53
2019-04-03T21:35:07.834Z,5.42
2019-04-03T21:37:39.782Z,5.83
2019-04-03T21:40:07.992Z,5.40
2019-04-03T21:42:37.238Z,6.10
2019-04-03T21:45:07.701Z,6.25
2019-04-03T21:47:37.613Z,6.55
2019-04-03T21:50:06.962Z,8.65
2019-04-03T21:52:36.208Z,6.22
2019-04-03T21:55:07.055Z,5.65
2019-04-03T21:57:38.386Z,5.83
2019-04-03T22:00:08.183Z,6.03
2019-04-03T22:02:39.327Z,6.20
2019-04-03T22:05:08.619Z,5.40
2019-04-03T22:07:37.872Z,5.30
2019-04-03T22:10:08.800Z,5.20
2019-04-03T22:12:38.101Z,5.67
2019-04-03T22:15:07.500Z,5.90
2019-04-03T22:17:36.886Z,5.17
2019-04-03T22:20:06.234Z,5.40
2019-04-03T22:22:35.560Z,4.80
2019-04-03T22:25:05.039Z,5.60
2019-04-03T22:27:34.334Z,4.80
2019-04-03T22:30:03.679Z,4.90
2019-04-03T22:32:34.103Z,4.55
2019-04-03T22:35:04.375Z,4.95
2019-04-03T22:37:35.146Z,5.47
2019-04-03T22:40:06.227Z,5.28
2019-04-03T22:42:35.548Z,5.30
2019-04-03T22:45:05.395Z,6.25
2019-04-03T22:47:34.787Z,5.55
2019-04-03T22:50:05.776Z,5.45
2019-04-03T22:52:35.062Z,6.65
2019-04-03T22:55:05.670Z,8.55
2019-04-03T22:57:34.947Z,6.17
2019-04-03T23:00:06.366Z,5.85
2019-04-03T23:02:37.210Z,5.70
2019-04-03T23:05:06.733Z,5.60
2019-04-03T23:07:36.009Z,5.75
2019-04-03T23:10:06.910Z,9.48
2019-04-03T23:12:36.231Z,5.65
2019-04-03T23:15:08.526Z,5.53
2019-04-03T23:17:37.127Z,5.42
2019-04-03T23:20:06.749Z,5.75
2019-04-03T23:22:36.086Z,5.53
2019-04-03T23:25:06.987Z,5.60
2019-04-03T23:27:36.264Z,6.10
2019-04-03T23:30:09.920Z,6.83
2019-04-03T23:32:38.464Z,5.40
2019-04-03T23:35:07.766Z,5.85
2019-04-03T23:37:36.991Z,5.70
2019-04-03T23:40:07.110Z,5.85
2019-04-03T23:42:37.847Z,5.70
2019-04-03T23:45:08.042Z,5.00
2019-04-03T23:47:37.310Z,8.28
2019-04-03T23:50:07.871Z,5.28
2019-04-03T23:52:37.149Z,5.05
2019-04-03T23:55:06.404Z,5.55
2019-04-03T23:57:35.924Z,5.05
